Time;durP1;ratioP1;P1;durP2;ratioP2;P2;SDS_P1;SDS_P2;PMS_P1;PMS_P2;Temp;Humidity;BMP_temperature;BMP_pressure;BME280_temperature;BME280_humidity;BME280_pressure;Samples;Min_cycle;Max_cycle;Signal;HPM_P1;HPM_P2
2022/01/27 00:02:01;;;;;;;;;;;4.90;99.90;;;;;;5052774;28;20286;-75
2022/01/27 00:04:36;;;;;;;;;;;4.90;99.90;;;;;;5052592;28;19921;-75
2022/01/27 00:07:02;;;;;;;;;;;4.90;99.90;;;;;;5035685;28;19925;-75
2022/01/27 00:09:46;;;;;;;;;;;4.90;99.90;;;;;;5052452;28;20023;-75
2022/01/27 00:12:16;;;;;;;;;;;4.90;99.90;;;;;;5035971;28;20374;-75
2022/01/27 00:14:46;;;;;;;;;;;4.90;99.90;;;;;;5019718;28;20391;-75
2022/01/27 00:17:14;;;;;;;;;;;4.90;99.90;;;;;;5035737;28;19931;-75
2022/01/27 00:19:41;;;;;;;;;;;4.90;99.90;;;;;;5052019;28;19946;-75
2022/01/27 00:22:06;;;;;;;;;;;4.90;99.90;;;;;;5030979;28;20291;-75
2022/01/27 00:24:32;;;;;;;;;;;4.90;99.90;;;;;;5018487;28;19921;-75
2022/01/27 00:26:58;;;;;;;;;;;4.90;99.90;;;;;;5053045;28;19921;-75
2022/01/27 00:29:24;;;;;;;;;;;5.00;99.90;;;;;;5035150;28;19925;-75
2022/01/27 00:31:50;;;;;;;;;;;5.00;99.90;;;;;;5053276;28;20359;-75
2022/01/27 00:34:15;;;;;;;;;;;5.00;99.90;;;;;;5035108;28;19963;-75
2022/01/27 00:36:41;;;;;;;;;;;4.90;99.90;;;;;;5051316;28;19924;-75
2022/01/27 00:39:06;;;;;;;;;;;5.00;99.90;;;;;;5035069;28;19920;-76
2022/01/27 00:41:32;;;;;;;;;;;5.00;99.90;;;;;;5051971;28;19943;-75
2022/01/27 00:43:57;;;;;;;;;;;5.00;99.90;;;;;;5051635;28;19977;-75
2022/01/27 00:46:23;;;;;;;;;;;4.90;99.90;;;;;;5048673;28;19921;-75
2022/01/27 00:48:49;;;;;;;;;;;5.00;99.90;;;;;;5037919;28;19933;-76
2022/01/27 00:51:21;;;;;;;;;;;5.00;99.90;;;;;;5034332;28;19929;-75
2022/01/27 00:54:03;;;;;;;;;;;5.00;99.90;;;;;;5051449;28;19921;-76
2022/01/27 00:56:39;;;;;;;;;;;5.10;99.90;;;;;;5051719;28;20011;-75
2022/01/27 01:02:14;;;;;;;;;;;5.10;99.90;;;;;;5051217;28;20406;-76
2022/01/27 01:04:44;;;;;;;;;;;5.10;99.90;;;;;;5034201;28;19929;-75
2022/01/27 01:07:11;;;;;;;;;;;5.10;99.90;;;;;;5031490;28;19925;-75
2022/01/27 01:20:00;;;;;;;;;;;5.10;99.90;;;;;;5051119;28;19920;-76
2022/01/27 01:33:12;;;;;;;;;;;5.10;99.90;;;;;;5051077;28;20283;-76
2022/01/27 01:35:48;;;;;;;;;;;5.10;99.90;;;;;;5050596;28;19921;-75
2022/01/27 01:38:18;;;;;;;;;;;5.10;99.90;;;;;;5050330;28;19967;-75
2022/01/27 01:40:45;;;;;;;;;;;5.20;99.90;;;;;;5050789;28;20521;-76
2022/01/27 01:43:11;;;;;;;;;;;5.10;99.90;;;;;;5034323;28;20371;-76
2022/01/27 01:45:36;;;;;;;;;;;5.10;99.90;;;;;;5034121;28;19963;-76
2022/01/27 01:48:02;;;;;;;;;;;5.10;99.90;;;;;;5034014;28;20375;-76
2022/01/27 01:50:28;;;;;;;;;;;5.10;99.90;;;;;;5050718;28;19942;-76
2022/01/27 01:52:53;;;;;;;;;;;5.10;99.90;;;;;;5050511;28;20414;-76
2022/01/27 01:55:19;;;;;;;;;;;5.10;99.90;;;;;;5050152;28;19921;-76
2022/01/27 01:57:44;;;;;;;;;;;5.10;99.90;;;;;;5050736;28;20283;-76
2022/01/27 02:00:11;;;;;;;;;;;5.00;99.90;;;;;;5050488;28;19948;-76
2022/01/27 02:02:38;;;;;;;;;;;5.10;99.90;;;;;;5050409;28;19928;-76
2022/01/27 02:05:05;;;;;;;;;;;5.10;99.90;;;;;;5050477;28;19921;-76
2022/01/27 02:07:59;;;;;;;;;;;5.10;99.90;;;;;;5033595;28;19968;-76
2022/01/27 02:10:40;;;;;;;;;;;5.10;99.90;;;;;;5050508;28;20286;-76
2022/01/27 02:17:58;;;;;;;;;;;5.10;99.90;;;;;;5051530;28;19943;-76
2022/01/27 02:18:47;;;;;;;;;;;5.10;99.90;;;;;;5050290;28;19982;-76
2022/01/27 02:21:13;;;;;;;;;;;5.10;99.90;;;;;;5033978;28;20379;-76
2022/01/27 02:23:38;;;;;;;;;;;5.10;99.90;;;;;;5050290;28;20387;-75
2022/01/27 02:26:04;;;;;;;;;;;5.00;99.90;;;;;;5050168;28;20287;-76
2022/01/27 02:28:29;;;;;;;;;;;5.00;99.90;;;;;;5033565;28;19925;-76
2022/01/27 02:30:55;;;;;;;;;;;4.90;99.90;;;;;;5050167;28;19944;-76
2022/01/27 02:33:30;;;;;;;;;;;4.90;99.90;;;;;;5050116;28;19924;-76
2022/01/27 02:35:56;;;;;;;;;;;4.80;99.90;;;;;;5049994;28;19920;-76
2022/01/27 02:38:21;;;;;;;;;;;4.80;99.90;;;;;;5033443;28;19924;-76
2022/01/27 02:40:53;;;;;;;;;;;4.80;99.90;;;;;;5050069;28;19921;-76
2022/01/27 02:43:18;;;;;;;;;;;4.80;99.90;;;;;;5050358;28;19964;-76
2022/01/27 02:45:48;;;;;;;;;;;4.80;99.90;;;;;;5033553;28;20294;-76
2022/01/27 02:48:14;;;;;;;;;;;4.80;99.90;;;;;;5033148;28;19931;-76
2022/01/27 02:50:40;;;;;;;;;;;4.80;99.90;;;;;;5053859;28;19921;-76
2022/01/27 02:53:09;;;;;;;;;;;4.80;99.90;;;;;;5054075;28;19920;-76
2022/01/27 02:55:34;;;;;;;;;;;4.90;99.90;;;;;;5036959;28;19956;-77
2022/01/27 02:58:00;;;;;;;;;;;4.90;99.90;;;;;;5037471;28;20018;-76
2022/01/27 03:00:25;;;;;;;;;;;4.90;99.90;;;;;;5033123;28;19968;-76
2022/01/27 03:02:51;;;;;;;;;;;4.90;99.90;;;;;;5044436;28;20410;-73
2022/01/27 03:05:18;;;;;;;;;;;4.90;99.90;;;;;;5050426;28;19925;-74
2022/01/27 03:07:47;;;;;;;;;;;4.90;99.90;;;;;;5037030;28;19925;-73
2022/01/27 03:10:16;;;;;;;;;;;5.00;99.90;;;;;;5053208;28;19995;-73
2022/01/27 03:12:42;;;;;;;;;;;5.00;99.90;;;;;;5037269;28;20260;-74
2022/01/27 03:15:10;;;;;;;;;;;5.00;99.90;;;;;;5036787;28;20019;-73
2022/01/27 03:17:35;;;;;;;;;;;5.00;99.90;;;;;;5053613;28;19975;-74
2022/01/27 03:20:01;;;;;;;;;;;5.00;99.90;;;;;;5036548;28;20022;-73
2022/01/27 03:22:26;;;;;;;;;;;5.00;99.90;;;;;;5036407;28;19974;-75
2022/01/27 03:24:52;;;;;;;;;;;5.00;99.90;;;;;;5053204;28;20038;-73
2022/01/27 03:27:22;;;;;;;;;;;5.10;99.90;;;;;;5036994;28;20260;-73
2022/01/27 03:29:47;;;;;;;;;;;5.00;99.90;;;;;;5036608;28;19928;-73
2022/01/27 03:32:13;;;;;;;;;;;5.10;99.90;;;;;;5036688;28;19920;-75
2022/01/27 03:34:38;;;;;;;;;;;5.00;99.90;;;;;;5036210;28;19921;-73
2022/01/27 03:37:04;;;;;;;;;;;5.10;99.90;;;;;;5036545;28;19967;-73
2022/01/27 03:39:29;;;;;;;;;;;5.10;99.90;;;;;;5036046;28;19921;-73
2022/01/27 03:41:56;;;;;;;;;;;5.10;99.90;;;;;;5036471;28;20394;-74
2022/01/27 03:44:22;;;;;;;;;;;5.10;99.90;;;;;;5052777;28;19924;-73
2022/01/27 03:46:49;;;;;;;;;;;5.00;99.90;;;;;;5053237;28;20391;-73
2022/01/27 03:49:14;;;;;;;;;;;5.10;99.90;;;;;;5052594;28;20021;-73
2022/01/27 03:51:40;;;;;;;;;;;5.00;99.90;;;;;;5036246;28;20371;-74
2022/01/27 03:54:05;;;;;;;;;;;5.00;99.90;;;;;;5036102;28;19921;-73
2022/01/27 03:56:31;;;;;;;;;;;5.00;99.90;;;;;;5036069;28;19975;-73
2022/01/27 03:58:56;;;;;;;;;;;5.00;99.90;;;;;;5052931;28;20334;-73
2022/01/27 04:01:22;;;;;;;;;;;5.00;99.90;;;;;;5035003;28;19921;-74
2022/01/27 04:03:47;;;;;;;;;;;5.00;99.90;;;;;;5053570;28;19921;-75
2022/01/27 04:06:19;;;;;;;;;;;5.00;99.90;;;;;;5035980;28;20403;-73
2022/01/27 04:08:45;;;;;;;;;;;4.90;99.90;;;;;;5052228;28;19979;-73
2022/01/27 04:11:10;;;;;;;;;;;5.10;99.90;;;;;;5035970;28;19963;-73
2022/01/27 04:13:36;;;;;;;;;;;5.00;99.90;;;;;;5035628;28;19921;-74
2022/01/27 04:16:02;;;;;;;;;;;5.00;99.90;;;;;;5035739;28;20019;-74
2022/01/27 04:18:28;;;;;;;;;;;5.10;99.90;;;;;;5052369;28;19928;-73
2022/01/27 04:20:53;;;;;;;;;;;5.10;99.90;;;;;;5035375;28;20003;-73
2022/01/27 04:23:19;;;;;;;;;;;5.10;99.90;;;;;;5035968;28;20451;-73
2022/01/27 04:25:45;;;;;;;;;;;5.10;99.90;;;;;;5052290;28;19920;-73
2022/01/27 04:28:14;;;;;;;;;;;5.10;99.90;;;;;;5053309;28;20338;-73
2022/01/27 04:30:39;;;;;;;;;;;5.10;99.90;;;;;;5052669;28;19920;-76
2022/01/27 04:33:06;;;;;;;;;;;5.10;99.90;;;;;;5052267;28;19931;-76
2022/01/27 04:35:36;;;;;;;;;;;5.20;99.90;;;;;;5035230;28;20162;-76
2022/01/27 04:38:15;;;;;;;;;;;5.20;99.90;;;;;;5052004;28;19925;-76
2022/01/27 04:41:03;;;;;;;;;;;5.20;99.90;;;;;;5035528;28;19921;-76
2022/01/27 04:46:18;;;;;;;;;;;5.20;99.90;;;;;;5052081;28;19921;-76
2022/01/27 04:48:49;;;;;;;;;;;5.20;99.90;;;;;;5035194;28;19925;-76
2022/01/27 04:51:18;;;;;;;;;;;5.20;99.90;;;;;;5015406;28;20291;-75
2022/01/27 04:53:51;;;;;;;;;;;5.20;99.90;;;;;;5047587;28;19921;-76
2022/01/27 04:56:18;;;;;;;;;;;5.20;99.90;;;;;;5052676;28;19925;-76
2022/01/27 04:58:46;;;;;;;;;;;5.10;99.90;;;;;;5052763;28;19939;-76
2022/01/27 05:01:13;;;;;;;;;;;5.20;99.90;;;;;;5053028;28;20364;-76
2022/01/27 05:03:46;;;;;;;;;;;5.20;99.90;;;;;;5052398;28;19921;-76
2022/01/27 05:06:12;;;;;;;;;;;5.20;99.90;;;;;;5051909;28;19936;-76
2022/01/27 05:08:37;;;;;;;;;;;5.20;99.90;;;;;;5051384;28;19924;-76
2022/01/27 05:13:36;;;;;;;;;;;5.20;99.90;;;;;;5045497;28;20406;-76
2022/01/27 05:16:02;;;;;;;;;;;5.20;99.90;;;;;;5035239;28;20007;-76
2022/01/27 05:18:28;;;;;;;;;;;5.20;99.90;;;;;;5034626;28;20401;-77
2022/01/27 05:20:53;;;;;;;;;;;5.30;99.90;;;;;;5034115;28;19921;-75
2022/01/27 05:23:19;;;;;;;;;;;5.20;99.90;;;;;;5034236;28;19920;-76
2022/01/27 05:25:44;;;;;;;;;;;5.30;99.90;;;;;;5034846;28;19921;-76
2022/01/27 05:28:10;;;;;;;;;;;5.20;99.90;;;;;;5050809;28;19925;-76
2022/01/27 05:30:36;;;;;;;;;;;5.30;99.90;;;;;;5050444;28;19921;-76
2022/01/27 05:33:01;;;;;;;;;;;5.30;99.90;;;;;;5051286;28;19924;-76
2022/01/27 05:35:27;;;;;;;;;;;5.40;99.90;;;;;;5052350;28;20055;-76
2022/01/27 05:37:53;;;;;;;;;;;5.40;99.90;;;;;;5034308;28;19927;-76
2022/01/27 05:40:18;;;;;;;;;;;5.40;99.90;;;;;;5050530;28;19927;-76
2022/01/27 05:42:44;;;;;;;;;;;5.40;99.90;;;;;;5051169;28;19927;-75
2022/01/27 05:45:09;;;;;;;;;;;5.50;99.90;;;;;;5050876;28;20398;-76
2022/01/27 05:47:35;;;;;;;;;;;5.40;99.90;;;;;;5050442;28;19944;-76
2022/01/27 05:50:00;;;;;;;;;;;5.40;99.90;;;;;;5034362;28;19920;-77
2022/01/27 05:52:26;;;;;;;;;;;5.30;99.90;;;;;;5050619;28;19920;-75
2022/01/27 05:54:52;;;;;;;;;;;5.40;99.90;;;;;;5034277;28;19920;-76
2022/01/27 05:57:17;;;;;;;;;;;5.40;99.90;;;;;;5034199;28;19921;-76
2022/01/27 05:59:43;;;;;;;;;;;5.40;99.90;;;;;;5033918;28;19921;-76
2022/01/27 06:02:08;;;;;;;;;;;5.30;99.90;;;;;;5033577;28;20321;-74
2022/01/27 06:04:34;;;;;;;;;;;5.30;99.90;;;;;;5051611;28;20420;-74
2022/01/27 06:06:59;;;;;;;;;;;5.20;99.90;;;;;;5034574;28;19921;-76
2022/01/27 06:09:25;;;;;;;;;;;5.20;99.90;;;;;;5029468;28;20383;-76
2022/01/27 06:11:50;;;;;;;;;;;5.20;99.90;;;;;;5041624;28;20059;-76
2022/01/27 06:14:16;;;;;;;;;;;5.20;99.90;;;;;;5033329;28;19928;-76
2022/01/27 06:16:44;;;;;;;;;;;5.10;99.90;;;;;;5047610;28;19925;-74
2022/01/27 06:19:09;;;;;;;;;;;5.00;99.90;;;;;;5047632;28;19921;-76
2022/01/27 06:21:35;;;;;;;;;;;5.10;99.90;;;;;;5035078;28;20371;-75
2022/01/27 06:24:02;;;;;;;;;;;5.00;99.90;;;;;;5054020;28;19921;-76
2022/01/27 06:26:29;;;;;;;;;;;5.00;99.90;;;;;;5059027;28;20433;-75
2022/01/27 06:28:56;;;;;;;;;;;5.00;99.90;;;;;;5059014;28;20381;-75
2022/01/27 06:31:21;;;;;;;;;;;5.00;99.90;;;;;;5042835;28;20399;-75
2022/01/27 06:33:47;;;;;;;;;;;5.00;99.90;;;;;;5041765;28;19970;-76
2022/01/27 06:36:12;;;;;;;;;;;5.00;99.90;;;;;;5041703;28;19967;-75
2022/01/27 06:38:38;;;;;;;;;;;5.00;99.90;;;;;;5058185;28;20418;-75
2022/01/27 06:41:03;;;;;;;;;;;5.00;99.90;;;;;;5040367;28;19970;-75
2022/01/27 06:43:29;;;;;;;;;;;5.00;99.90;;;;;;5039626;28;20351;-76
2022/01/27 06:45:54;;;;;;;;;;;5.00;99.90;;;;;;5037353;28;19920;-76
2022/01/27 06:48:20;;;;;;;;;;;5.00;99.90;;;;;;5053256;28;19932;-76
2022/01/27 06:50:50;;;;;;;;;;;5.00;99.90;;;;;;5054131;28;19925;-76
2022/01/27 06:53:16;;;;;;;;;;;5.10;99.90;;;;;;5037635;28;19969;-76
2022/01/27 06:55:42;;;;;;;;;;;5.00;99.90;;;;;;5054308;28;20231;-76
2022/01/27 06:58:07;;;;;;;;;;;5.00;99.90;;;;;;5050223;28;19928;-77
2022/01/27 07:00:33;;;;;;;;;;;5.00;99.90;;;;;;5017597;28;19921;-77
2022/01/27 07:02:58;;;;;;;;;;;5.10;99.90;;;;;;5033445;28;19968;-76
2022/01/27 07:05:24;;;;;;;;;;;5.10;99.90;;;;;;5036677;28;19921;-76
2022/01/27 07:07:52;;;;;;;;;;;5.10;99.90;;;;;;5037085;28;19972;-78
2022/01/27 07:10:18;;;;;;;;;;;5.10;99.90;;;;;;5054295;28;20097;-76
2022/01/27 07:12:52;;;;;;;;;;;5.10;99.90;;;;;;5044606;28;20418;-77
2022/01/27 07:15:17;;;;;;;;;;;5.10;99.90;;;;;;5020005;28;20302;-76
2022/01/27 07:17:47;;;;;;;;;;;5.20;99.90;;;;;;5025829;28;19967;-76
2022/01/27 07:20:13;;;;;;;;;;;5.20;99.90;;;;;;5017838;28;19925;-76
2022/01/27 07:22:39;;;;;;;;;;;5.20;99.90;;;;;;5027080;28;20348;-76
2022/01/27 07:25:07;;;;;;;;;;;5.20;99.90;;;;;;5036335;28;19966;-77
2022/01/27 07:27:38;;;;;;;;;;;5.20;99.90;;;;;;5038489;28;20275;-77
2022/01/27 07:30:07;;;;;;;;;;;5.20;99.90;;;;;;5038343;28;20011;-76
2022/01/27 07:32:41;;;;;;;;;;;5.20;99.90;;;;;;5037282;28;19925;-76
2022/01/27 07:35:21;;;;;;;;;;;5.30;99.90;;;;;;5018380;28;19928;-77
2022/01/27 07:37:50;;;;;;;;;;;5.20;99.90;;;;;;5033775;28;19921;-77
2022/01/27 07:40:31;;;;;;;;;;;5.20;99.90;;;;;;5035618;28;19943;-78
2022/01/27 07:43:13;;;;;;;;;;;5.30;99.90;;;;;;5036344;28;19924;-77
2022/01/27 07:46:03;;;;;;;;;;;5.30;99.90;;;;;;5033687;28;20440;-77
2022/01/27 07:48:59;;;;;;;;;;;5.40;99.90;;;;;;5042261;28;19925;-77
2022/01/27 08:01:35;;;;;;;;;;;5.60;99.90;;;;;;4985070;28;19925;-77
2022/01/27 08:04:21;;;;;;;;;;;5.70;99.90;;;;;;4980064;28;19928;-78
2022/01/27 08:06:49;;;;;;;;;;;5.80;99.90;;;;;;4996345;28;19921;-77
2022/01/27 08:09:42;;;;;;;;;;;5.80;99.90;;;;;;5012135;28;19972;-78
2022/01/27 08:12:49;;;;;;;;;;;5.90;99.90;;;;;;5018249;28;19921;-77
2022/01/27 08:15:24;;;;;;;;;;;6.00;99.90;;;;;;5052207;28;19925;-77
2022/01/27 08:17:59;;;;;;;;;;;6.00;99.90;;;;;;5036128;28;19920;-77
2022/01/27 08:20:25;;;;;;;;;;;6.10;99.90;;;;;;5036175;28;19921;-77
2022/01/27 08:23:25;;;;;;;;;;;6.20;99.90;;;;;;5036498;28;19921;-77
2022/01/27 08:26:14;;;;;;;;;;;6.20;99.90;;;;;;5040234;28;20119;-76
2022/01/27 08:32:33;;;;;;;;;;;6.30;99.90;;;;;;5036912;28;19921;-77
2022/01/27 08:35:03;;;;;;;;;;;6.30;99.90;;;;;;5050962;28;20398;-77
2022/01/27 08:37:32;;;;;;;;;;;6.30;99.90;;;;;;5019347;28;19920;-78
2022/01/27 08:40:20;;;;;;;;;;;6.30;99.90;;;;;;5045921;28;19921;-77
2022/01/27 08:43:16;;;;;;;;;;;6.40;99.90;;;;;;5034358;28;19921;-78
2022/01/27 08:45:52;;;;;;;;;;;6.40;99.90;;;;;;5016267;28;19971;-77
2022/01/27 08:48:29;;;;;;;;;;;6.50;99.90;;;;;;5016034;28;19935;-77
2022/01/27 08:51:11;;;;;;;;;;;6.40;99.90;;;;;;5015898;28;19921;-77
2022/01/27 08:53:44;;;;;;;;;;;6.40;99.90;;;;;;5051921;28;20356;-78
2022/01/27 08:56:13;;;;;;;;;;;6.50;99.90;;;;;;5035529;28;19966;-77
2022/01/27 08:58:50;;;;;;;;;;;6.50;99.90;;;;;;5035398;28;19921;-77
2022/01/27 09:01:29;;;;;;;;;;;;;;;;;;;;;
2022/01/27 09:04:08;;;;;;;;;;;6.50;99.90;;;;;;5050850;28;19921;-77
2022/01/27 09:06:50;;;;;;;;;;;6.60;99.90;;;;;;5022616;28;19974;-77
2022/01/27 09:09:26;;;;;;;;;;;6.60;99.90;;;;;;5034504;28;20307;-77
2022/01/27 09:12:00;;;;;;;;;;;6.70;99.90;;;;;;5035702;28;19921;-77
2022/01/27 09:14:29;;;;;;;;;;;6.80;99.90;;;;;;5050929;28;20342;-77
2022/01/27 09:17:06;;;;;;;;;;;6.90;99.90;;;;;;5036568;28;19927;-77
2022/01/27 09:19:45;;;;;;;;;;;7.00;99.90;;;;;;5034259;28;20501;-77
2022/01/27 09:22:23;;;;;;;;;;;7.00;99.90;;;;;;5035116;28;19921;-77
2022/01/27 09:25:08;;;;;;;;;;;7.00;99.90;;;;;;5051768;28;19974;-77
2022/01/27 09:27:37;;;;;;;;;;;7.10;99.90;;;;;;5035360;28;19959;-77
2022/01/27 09:30:17;;;;;;;;;;;7.10;99.90;;;;;;5034184;28;19925;-77
2022/01/27 09:33:21;;;;;;;;;;;7.10;99.90;;;;;;5051597;28;20298;-77
2022/01/27 09:35:47;;;;;;;;;;;7.10;99.90;;;;;;5033685;28;19921;-77
2022/01/27 09:38:13;;;;;;;;;;;7.10;99.90;;;;;;5034380;28;19936;-77
2022/01/27 09:40:47;;;;;;;;;;;7.10;99.90;;;;;;5034495;28;19960;-77
2022/01/27 09:43:27;;;;;;;;;;;7.10;99.90;;;;;;5034824;28;20015;-78
2022/01/27 09:45:59;;;;;;;;;;;7.10;99.90;;;;;;5034550;28;20422;-77
2022/01/27 09:48:40;;;;;;;;;;;7.30;99.90;;;;;;5034476;28;20272;-77
2022/01/27 09:54:02;;;;;;;;;;;7.40;99.90;;;;;;5050060;28;19920;-77
2022/01/27 09:56:36;;;;;;;;;;;7.40;99.90;;;;;;5033579;28;20437;-77
2022/01/27 09:59:08;;;;;;;;;;;7.50;99.90;;;;;;5017170;28;20082;-77
2022/01/27 10:01:54;;;;;;;;;;;7.50;99.90;;;;;;5034631;28;19921;-77
2022/01/27 10:04:26;;;;;;;;;;;7.50;99.90;;;;;;5034457;28;19963;-77
2022/01/27 10:06:55;;;;;;;;;;;7.50;99.90;;;;;;5033793;28;19925;-77
2022/01/27 10:10:00;;;;;;;;;;;7.50;99.90;;;;;;5050792;28;19928;-77
2022/01/27 10:12:35;;;;;;;;;;;7.50;99.90;;;;;;5033646;28;19927;-77
2022/01/27 10:15:32;;;;;;;;;;;7.50;99.90;;;;;;5050243;28;19928;-77
2022/01/27 10:18:04;;;;;;;;;;;7.50;99.90;;;;;;5034114;28;19935;-78
2022/01/27 10:21:04;;;;;;;;;;;7.50;99.90;;;;;;5035824;28;19921;-77
2022/01/27 10:23:40;;;;;;;;;;;7.60;99.90;;;;;;5035247;28;19925;-77
2022/01/27 10:26:42;;;;;;;;;;;7.60;99.90;;;;;;5033815;28;19928;-77
2022/01/27 10:29:28;;;;;;;;;;;7.60;99.90;;;;;;5021216;28;19983;-77
2022/01/27 10:32:17;;;;;;;;;;;7.70;99.90;;;;;;5033884;28;19964;-77
2022/01/27 10:34:55;;;;;;;;;;;7.60;99.90;;;;;;5024482;28;19921;-77
2022/01/27 10:37:29;;;;;;;;;;;7.70;99.90;;;;;;5033996;28;19924;-77
2022/01/27 10:39:54;;;;;;;;;;;7.70;99.90;;;;;;5033093;28;19927;-77
2022/01/27 10:42:32;;;;;;;;;;;7.70;99.90;;;;;;5030390;28;20346;-77
2022/01/27 10:45:06;;;;;;;;;;;7.80;99.90;;;;;;5014686;28;20331;-76
2022/01/27 10:47:44;;;;;;;;;;;7.80;99.90;;;;;;5031746;28;19921;-77
2022/01/27 10:50:14;;;;;;;;;;;7.90;99.90;;;;;;5031747;28;20349;-77
2022/01/27 10:52:50;;;;;;;;;;;7.90;99.90;;;;;;5033570;28;19921;-77
2022/01/27 10:55:17;;;;;;;;;;;7.80;99.90;;;;;;5051834;28;20019;-77
2022/01/27 10:57:50;;;;;;;;;;;7.90;99.90;;;;;;5033803;28;19925;-76
2022/01/27 11:00:22;;;;;;;;;;;7.90;99.90;;;;;;5033897;28;19921;-77
2022/01/27 11:02:56;;;;;;;;;;;7.90;99.90;;;;;;5033149;28;19974;-77
2022/01/27 11:05:23;;;;;;;;;;;8.00;99.90;;;;;;5050050;28;20375;-77
2022/01/27 11:07:49;;;;;;;;;;;8.00;99.90;;;;;;5033699;28;19921;-77
2022/01/27 11:10:23;;;;;;;;;;;8.10;99.90;;;;;;5034167;28;19964;-77
2022/01/27 11:12:58;;;;;;;;;;;8.10;99.90;;;;;;5033255;28;19928;-77
2022/01/27 11:15:26;;;;;;;;;;;8.10;99.90;;;;;;5017350;28;19971;-77
2022/01/27 11:17:58;;;;;;;;;;;8.10;99.90;;;;;;5024077;28;19921;-77
2022/01/27 11:27:50;;;;;;;;;;;9.00;99.90;;;;;;5053720;28;19964;-77
2022/01/27 11:30:18;;;;;;;;;;;9.20;99.90;;;;;;5036156;28;19929;-77
2022/01/27 11:33:02;;;;;;;;;;;9.70;99.90;;;;;;5036503;28;19921;-77
2022/01/27 11:35:28;;;;;;;;;;;9.80;99.90;;;;;;5036348;28;19927;-77
2022/01/27 11:37:57;;;;;;;;;;;9.90;99.90;;;;;;5036734;28;20286;-76
2022/01/27 11:40:45;;;;;;;;;;;10.00;99.90;;;;;;5036961;28;19920;-76
2022/01/27 11:43:16;;;;;;;;;;;9.90;99.90;;;;;;5036842;28;19920;-78
2022/01/27 11:45:41;;;;;;;;;;;9.80;99.90;;;;;;5052907;28;19924;-76
2022/01/27 11:48:11;;;;;;;;;;;9.60;99.90;;;;;;5036264;28;20035;-77
2022/01/27 11:50:49;;;;;;;;;;;9.60;99.90;;;;;;5052963;28;20376;-76
2022/01/27 11:53:33;;;;;;;;;;;9.40;99.90;;;;;;5036366;28;19927;-77
2022/01/27 11:56:00;;;;;;;;;;;9.30;99.90;;;;;;5036460;28;19920;-76
2022/01/27 11:58:26;;;;;;;;;;;9.20;99.90;;;;;;5036539;28;20468;-77
2022/01/27 12:01:10;;;;;;;;;;;9.00;99.90;;;;;;5036490;28;19971;-77
2022/01/27 12:03:36;;;;;;;;;;;9.00;99.90;;;;;;5052782;28;20391;-77
2022/01/27 12:06:13;;;;;;;;;;;9.10;99.90;;;;;;5036062;28;20390;-76
2022/01/27 12:08:44;;;;;;;;;;;9.00;99.90;;;;;;5036628;28;19939;-76
2022/01/27 12:11:29;;;;;;;;;;;9.10;99.90;;;;;;5036055;28;20276;-77
2022/01/27 12:14:01;;;;;;;;;;;9.10;99.90;;;;;;5035923;28;20434;-77
2022/01/27 12:16:54;;;;;;;;;;;9.10;99.90;;;;;;5035833;28;19924;-77
2022/01/27 12:19:25;;;;;;;;;;;9.20;99.90;;;;;;5036149;28;20008;-77
2022/01/27 12:22:00;;;;;;;;;;;9.20;99.90;;;;;;5051994;28;19968;-76
2022/01/27 12:24:32;;;;;;;;;;;9.20;99.90;;;;;;5036544;28;20265;-77
2022/01/27 12:27:07;;;;;;;;;;;9.20;99.90;;;;;;5036346;28;19921;-77
2022/01/27 12:29:41;;;;;;;;;;;9.20;99.90;;;;;;5035432;28;19929;-76
2022/01/27 12:32:09;;;;;;;;;;;9.20;99.90;;;;;;5036131;28;19943;-77
2022/01/27 12:34:40;;;;;;;;;;;9.20;99.90;;;;;;5019101;28;23101;-76
2022/01/27 12:37:07;;;;;;;;;;;9.10;99.90;;;;;;5035552;28;19921;-76
2022/01/27 12:39:40;;;;;;;;;;;9.10;99.90;;;;;;5035459;28;19921;-76
2022/01/27 12:42:14;;;;;;;;;;;9.00;99.90;;;;;;5034978;28;20015;-77
2022/01/27 12:45:03;;;;;;;;;;;9.00;99.90;;;;;;5032101;28;19921;-76
2022/01/27 12:47:39;;;;;;;;;;;9.00;99.90;;;;;;5017888;28;19921;-77
2022/01/27 12:50:17;;;;;;;;;;;9.00;99.90;;;;;;5035465;28;19925;-76
2022/01/27 12:52:43;;;;;;;;;;;9.00;99.90;;;;;;5034862;28;19921;-78
2022/01/27 12:55:12;;;;;;;;;;;9.00;99.90;;;;;;5034923;28;19963;-76
2022/01/27 12:57:40;;;;;;;;;;;9.00;99.90;;;;;;5035067;28;19924;-77
2022/01/27 13:00:18;;;;;;;;;;;9.10;99.90;;;;;;5034734;28;19928;-77
2022/01/27 13:02:49;;;;;;;;;;;9.10;99.90;;;;;;5031438;28;19927;-77
2022/01/27 13:05:20;;;;;;;;;;;9.20;99.90;;;;;;5019101;28;19921;-77
2022/01/27 13:07:49;;;;;;;;;;;9.10;99.90;;;;;;5033826;28;19929;-77
2022/01/27 13:10:19;;;;;;;;;;;9.10;99.90;;;;;;5034466;28;19920;-76
2022/01/27 13:12:54;;;;;;;;;;;9.10;99.90;;;;;;5030742;28;19925;-76
2022/01/27 13:15:21;;;;;;;;;;;9.10;99.90;;;;;;5015347;28;19921;-77
2022/01/27 13:18:00;;;;;;;;;;;9.20;99.90;;;;;;5015014;28;20380;-77
2022/01/27 13:20:41;;;;;;;;;;;9.20;99.90;;;;;;5031640;28;20279;-76
2022/01/27 13:23:14;;;;;;;;;;;9.20;99.90;;;;;;5026594;28;19928;-76
2022/01/27 13:25:56;;;;;;;;;;;9.10;99.90;;;;;;5049100;28;19933;-76
2022/01/27 13:28:29;;;;;;;;;;;9.10;99.90;;;;;;5033976;28;19975;-78
2022/01/27 13:30:57;;;;;;;;;;;9.10;99.90;;;;;;5034432;28;19982;-76
2022/01/27 13:33:26;;;;;;;;;;;9.00;99.90;;;;;;5050919;28;19920;-76
2022/01/27 13:35:53;;;;;;;;;;;9.00;99.90;;;;;;5034509;28;20303;-77
2022/01/27 13:38:25;;;;;;;;;;;9.00;99.90;;;;;;5034519;28;19927;-77
2022/01/27 13:41:16;;;;;;;;;;;9.00;99.90;;;;;;5014990;28;20287;-76
2022/01/27 13:43:43;;;;;;;;;;;8.90;99.90;;;;;;5014511;28;19928;-76
2022/01/27 13:46:31;;;;;;;;;;;8.90;99.90;;;;;;5027249;28;20337;-76
2022/01/27 13:49:10;;;;;;;;;;;8.90;99.90;;;;;;5035327;28;20321;-77
2022/01/27 13:51:50;;;;;;;;;;;8.90;99.90;;;;;;5033952;28;19928;-76
2022/01/27 13:54:20;;;;;;;;;;;8.90;99.90;;;;;;5034851;28;20346;-77
2022/01/27 13:56:47;;;;;;;;;;;8.80;99.90;;;;;;5051084;28;19921;-77
2022/01/27 13:59:19;;;;;;;;;;;8.80;99.90;;;;;;5034261;28;19920;-76
2022/01/27 14:01:48;;;;;;;;;;;8.70;99.90;;;;;;5033989;28;19921;-78
2022/01/27 14:04:14;;;;;;;;;;;8.80;99.90;;;;;;5037025;28;19927;-76
2022/01/27 14:06:50;;;;;;;;;;;8.70;99.90;;;;;;5036172;28;20019;-76
2022/01/27 14:09:17;;;;;;;;;;;8.70;99.90;;;;;;5034555;28;19978;-77
2022/01/27 14:11:55;;;;;;;;;;;8.60;99.90;;;;;;5050728;28;20260;-77
2022/01/27 14:14:41;;;;;;;;;;;8.60;99.90;;;;;;5034207;28;19970;-77
2022/01/27 14:17:19;;;;;;;;;;;8.60;99.90;;;;;;5034127;28;19921;-77
2022/01/27 14:19:48;;;;;;;;;;;8.60;99.90;;;;;;5033869;28;19920;-77
2022/01/27 14:22:19;;;;;;;;;;;8.60;99.90;;;;;;5034151;28;19960;-77
2022/01/27 14:25:08;;;;;;;;;;;8.60;99.90;;;;;;5034352;28;20618;-77
2022/01/27 14:27:37;;;;;;;;;;;8.50;99.90;;;;;;5034031;28;19921;-76
2022/01/27 14:30:05;;;;;;;;;;;8.60;99.90;;;;;;5033603;28;20375;-77
2022/01/27 14:32:32;;;;;;;;;;;8.60;99.90;;;;;;5034288;28;19973;-77
2022/01/27 14:35:15;;;;;;;;;;;8.50;99.90;;;;;;5035729;28;19921;-77
2022/01/27 14:37:41;;;;;;;;;;;8.50;99.90;;;;;;5034116;28;20015;-77
2022/01/27 14:40:13;;;;;;;;;;;8.50;99.90;;;;;;5033963;28;20156;-77
2022/01/27 14:42:40;;;;;;;;;;;8.50;99.90;;;;;;5032761;28;19928;-77
2022/01/27 14:45:07;;;;;;;;;;;8.50;99.90;;;;;;5034360;28;19986;-77
2022/01/27 14:47:40;;;;;;;;;;;8.50;99.90;;;;;;5037688;28;20379;-77
2022/01/27 14:50:09;;;;;;;;;;;8.50;99.90;;;;;;5037750;28;20303;-77
2022/01/27 14:52:41;;;;;;;;;;;8.40;99.90;;;;;;5039912;28;19921;-77
2022/01/27 14:55:07;;;;;;;;;;;8.40;99.90;;;;;;5039789;28;19927;-77
2022/01/27 14:57:36;;;;;;;;;;;8.40;99.90;;;;;;5038906;28;19928;-77
2022/01/27 15:00:11;;;;;;;;;;;8.40;99.90;;;;;;5038914;28;19931;-77
2022/01/27 15:02:49;;;;;;;;;;;8.40;99.90;;;;;;5037724;28;20374;-77
2022/01/27 15:05:18;;;;;;;;;;;8.40;99.90;;;;;;5037662;28;20015;-77
2022/01/27 15:07:47;;;;;;;;;;;8.40;99.90;;;;;;5053524;28;19925;-76
2022/01/27 15:10:15;;;;;;;;;;;8.30;99.90;;;;;;5037031;28;19927;-76
2022/01/27 15:12:41;;;;;;;;;;;8.30;99.90;;;;;;5036575;28;19921;-76
2022/01/27 15:20:36;;;;;;;;;;;8.10;99.90;;;;;;5053500;28;20037;-76
2022/01/27 15:23:04;;;;;;;;;;;8.10;99.90;;;;;;5036826;28;20007;-76
2022/01/27 15:25:30;;;;;;;;;;;8.10;99.90;;;;;;5036832;28;19921;-76
2022/01/27 15:27:55;;;;;;;;;;;8.10;99.90;;;;;;5037056;28;19967;-76
2022/01/27 15:30:21;;;;;;;;;;;8.10;99.90;;;;;;5036511;28;19963;-77
2022/01/27 15:32:49;;;;;;;;;;;7.90;99.90;;;;;;5036837;28;19921;-77
2022/01/27 15:35:19;;;;;;;;;;;7.90;99.90;;;;;;5053545;28;19974;-77
2022/01/27 15:37:45;;;;;;;;;;;7.90;99.90;;;;;;5036234;28;20411;-76
2022/01/27 15:40:16;;;;;;;;;;;7.80;99.90;;;;;;5037580;28;19920;-76
2022/01/27 15:42:43;;;;;;;;;;;7.80;99.90;;;;;;5036675;28;20011;-76
2022/01/27 15:45:08;;;;;;;;;;;7.70;99.90;;;;;;5036440;28;19927;-76
2022/01/27 15:47:37;;;;;;;;;;;7.70;99.90;;;;;;5036400;28;19921;-76
2022/01/27 15:50:10;;;;;;;;;;;7.70;99.90;;;;;;5036285;28;19932;-76
2022/01/27 15:52:40;;;;;;;;;;;7.60;99.90;;;;;;5036298;28;19925;-76
2022/01/27 15:55:07;;;;;;;;;;;7.60;99.90;;;;;;5036453;28;19971;-76
2022/01/27 15:57:35;;;;;;;;;;;7.50;99.90;;;;;;5035421;28;19950;-76